Moosonee Airport
CYMO : now visible

Airfield :











YOU CAN JOIN US ON...

 
LOGIN :

Register | Disclaimer

   EN    FR    IT 

 









Legend :    VFR   Marginal VFR   IFR   Intensive IFR   Very Intensive IFR
Visi :
Ceiling :
>= 8 km
>= 3000ft
5 to 8 km
1000 to 3000 ft
1500m to 5 km
500 to 1000 ft
800 to 1500m
200 to 500 ft
< 800m
< 200 ft
Symbols :   Thunderstorms  Fog  Heavy snow  Heavy precipitations  Wind > 20 kt






- Airport Elevation : 30 ft
- IATA code : YMO


CYMO - Moosonee

CURRENT METAR :
  • 120224Z AUTO 25011KT 9SM BKN042 M26/M29 A3019 RMK SLP225

EXPIRED METARs :
  • 120200Z AUTO 25011KT 7SM -SN FEW022 BKN027 M26/M29 A3018 RMK SLP224
  • 120156Z AUTO 25010G15KT 6SM -SN BKN024 M26/M29 A3018 RMK SLP224
  • 120100Z AUTO 25011G17KT 9SM FEW034 M25/M29 A3017 RMK SLP221
  • 120025Z AUTO 25013G18KT 9SM BKN032 BKN039 M25/M29 A3016 RMK SLP217
  • 120017Z AUTO 26012G19KT 7SM -SN BKN034 M25/M29 A3016 RMK SLP216
  • 120005Z AUTO 26012KT 4SM -SN BKN034 BKN065 BKN100 M25/M29 A3016 RMK SLP215

TAF AMD TAF CYMO
Valid from the 12 at 00:00 until the 12 at 12:00 UTC


120010Z 1200/1212 26012KT P6SM BKN030 BKN060
TEMPO 1200/1212 4SM -SN BKN030 BKN060 RMK FCST BASED ON AUTO OBS. NXT FCST BY 120600Z



MET'MAP, your aeronautical weather chart ! - Copyright ORBIFLY December 2007 - Disclaimer

ORBIFLY MET'MAP TEAM :

Programming & Development : Alexandra Zaïnal
Concept & original design : Baudouin d'Aumeries
Assistance for programming : Marc-Olivier Méhu
Technical & hardware support : Manuel Goepfert

Contact : metmap@orbifly.com




SOURCES & CREDITS :

   NOAA       Earth
Advisory